createdAt,value
2023-03-18T00:02:08.596Z,42.51
2023-03-18T00:05:15.116Z,43.16
2023-03-18T00:08:22.032Z,42.34
2023-03-18T00:11:27.651Z,42.19
2023-03-18T00:14:34.657Z,43.27
2023-03-18T00:17:43.528Z,42.57
2023-03-18T00:20:49.732Z,43.54
2023-03-18T00:23:56.823Z,42.27
2023-03-18T00:27:03.177Z,42.61
2023-03-18T00:30:12.590Z,43.31
2023-03-18T00:33:22.626Z,42.85
2023-03-18T00:36:28.532Z,42.39
2023-03-18T00:39:35.894Z,42.55
2023-03-18T00:42:47.779Z,42.71
2023-03-18T00:45:54.270Z,43.06
2023-03-18T00:49:05.658Z,44.13
2023-03-18T00:52:12.209Z,43.26
2023-03-18T00:55:17.687Z,43.64
2023-03-18T00:58:24.765Z,43.68
2023-03-18T01:01:31.857Z,43.73
2023-03-18T01:04:41.682Z,44.09
2023-03-18T01:07:48.627Z,44.69
2023-03-18T01:10:54.854Z,44.61
2023-03-18T01:14:01.517Z,44.61
2023-03-18T01:17:10.973Z,44.88
2023-03-18T01:20:23.920Z,43.72
2023-03-18T01:23:33.397Z,44.27
2023-03-18T01:26:39.460Z,43.93
2023-03-18T01:29:46.661Z,43.97
2023-03-18T01:32:57.983Z,44.75
2023-03-18T01:36:08.767Z,43.88
2023-03-18T01:39:14.601Z,44.93
2023-03-18T01:42:22.300Z,44.60
2023-03-18T01:45:32.299Z,44.67
2023-03-18T01:48:43.156Z,44.03
2023-03-18T01:51:58.098Z,44.86
2023-03-18T01:55:11.619Z,45.28
2023-03-18T01:58:25.601Z,45.39
2023-03-18T02:01:40.519Z,45.40
2023-03-18T02:04:51.222Z,44.66
2023-03-18T02:08:00.510Z,44.59
2023-03-18T02:11:07.763Z,44.97
2023-03-18T02:14:19.465Z,45.51
2023-03-18T02:17:30.705Z,45.54
2023-03-18T02:21:11.640Z,45.31
2023-03-18T02:24:38.773Z,45.12
2023-03-18T02:28:03.507Z,46.04
2023-03-18T02:31:19.643Z,45.87
2023-03-18T02:34:28.634Z,45.46
2023-03-18T02:37:36.464Z,45.67
2023-03-18T02:40:45.673Z,45.50
2023-03-18T02:44:00.049Z,46.38
2023-03-18T02:47:18.406Z,46.05
2023-03-18T02:50:24.966Z,46.32
2023-03-18T02:53:30.667Z,46.12
2023-03-18T02:56:37.395Z,45.86
2023-03-18T02:59:45.624Z,46.15
2023-03-18T03:02:52.327Z,46.90
2023-03-18T03:05:59.330Z,46.90
2023-03-18T03:09:07.091Z,46.29
2023-03-18T03:12:13.937Z,47.10
2023-03-18T03:15:29.885Z,46.96
2023-03-18T03:18:38.438Z,47.32
2023-03-18T03:21:44.660Z,47.10
2023-03-18T03:24:50.169Z,47.16
2023-03-18T03:27:57.489Z,47.37
2023-03-18T03:31:07.044Z,47.41
2023-03-18T03:34:14.891Z,47.68
2023-03-18T03:37:21.738Z,47.64
2023-03-18T03:40:28.877Z,47.90
2023-03-18T03:43:34.471Z,48.07
2023-03-18T03:46:43.487Z,47.71
2023-03-18T03:49:48.909Z,48.29
2023-03-18T03:52:56.197Z,48.04
2023-03-18T03:56:02.105Z,47.70
2023-03-18T03:59:08.777Z,48.24
2023-03-18T04:02:39.915Z,48.36
2023-03-18T04:05:46.819Z,48.52
2023-03-18T04:08:52.752Z,48.01
2023-03-18T04:11:59.440Z,48.64
2023-03-18T04:15:05.070Z,48.62
2023-03-18T04:18:15.055Z,48.64
2023-03-18T04:21:21.362Z,48.84
2023-03-18T04:24:32.627Z,48.85
2023-03-18T04:27:38.571Z,48.83
2023-03-18T04:30:47.659Z,48.70
2023-03-18T04:34:00.163Z,48.86
2023-03-18T04:37:07.921Z,48.79
2023-03-18T04:40:20.198Z,49.16
2023-03-18T04:43:26.566Z,48.85
2023-03-18T04:46:32.854Z,48.85
2023-03-18T04:49:42.277Z,49.21
2023-03-18T04:52:48.518Z,48.80
2023-03-18T04:56:00.449Z,48.90
2023-03-18T04:59:13.796Z,49.09
2023-03-18T05:02:20.093Z,49.62
2023-03-18T05:05:28.948Z,49.65
2023-03-18T05:08:35.354Z,50.04
2023-03-18T05:11:40.845Z,49.62
2023-03-18T05:14:58.227Z,49.47
2023-03-18T05:18:04.850Z,49.43
2023-03-18T05:21:15.009Z,49.68
2023-03-18T05:24:21.060Z,49.89
2023-03-18T05:27:27.989Z,49.80
2023-03-18T05:30:40.562Z,49.57
2023-03-18T05:33:51.361Z,49.81
2023-03-18T05:37:00.631Z,49.50
2023-03-18T05:40:10.099Z,49.47
2023-03-18T05:43:16.177Z,49.31
2023-03-18T05:46:29.199Z,48.99
2023-03-18T05:49:41.752Z,49.36
2023-03-18T05:53:01.368Z,48.90
2023-03-18T05:56:12.498Z,48.94
2023-03-18T05:59:19.159Z,48.72
2023-03-18T06:02:28.094Z,48.57
2023-03-18T06:05:35.342Z,48.48
2023-03-18T06:08:43.981Z,48.55
2023-03-18T06:11:51.710Z,49.22
2023-03-18T06:14:57.646Z,48.61
2023-03-18T06:18:05.571Z,47.96
2023-03-18T06:21:13.546Z,48.06
2023-03-18T06:24:22.604Z,47.68
2023-03-18T06:27:28.469Z,47.23
2023-03-18T06:30:38.105Z,47.25
2023-03-18T06:33:44.428Z,46.89
2023-03-18T06:36:53.351Z,46.10
2023-03-18T06:40:01.857Z,46.85
2023-03-18T06:43:09.559Z,45.55
2023-03-18T06:46:18.047Z,46.85
2023-03-18T06:49:25.093Z,46.79
2023-03-18T06:52:38.558Z,46.11
2023-03-18T06:55:54.236Z,45.11
2023-03-18T06:59:03.454Z,45.41
2023-03-18T07:02:11.606Z,44.73
2023-03-18T07:05:17.893Z,45.35
2023-03-18T07:08:24.649Z,45.02
2023-03-18T07:11:33.180Z,44.73
2023-03-18T07:14:45.970Z,43.97
2023-03-18T07:17:53.669Z,44.45
2023-03-18T07:20:59.943Z,43.49
2023-03-18T07:24:05.805Z,43.27
2023-03-18T07:27:16.870Z,42.98
2023-03-18T07:30:23.123Z,42.93
2023-03-18T07:33:29.421Z,43.39
2023-03-18T07:36:35.066Z,42.50
2023-03-18T07:39:42.956Z,42.97
2023-03-18T07:42:51.788Z,41.72
2023-03-18T07:45:58.892Z,42.00
2023-03-18T07:49:04.595Z,41.42
2023-03-18T07:52:11.414Z,40.93
2023-03-18T07:55:17.305Z,41.48
2023-03-18T07:58:26.817Z,40.78
2023-03-18T08:01:33.280Z,40.28
2023-03-18T08:04:39.557Z,39.97
2023-03-18T08:07:45.649Z,39.98
2023-03-18T08:10:52.505Z,39.12
2023-03-18T08:14:00.752Z,38.23
2023-03-18T08:17:07.825Z,38.17
2023-03-18T08:20:15.447Z,37.68
2023-03-18T08:23:21.883Z,37.78
2023-03-18T08:26:27.528Z,36.92
2023-03-18T08:29:37.008Z,36.65
2023-03-18T08:32:42.920Z,36.37
2023-03-18T08:35:51.010Z,36.34
2023-03-18T08:38:56.747Z,35.68
2023-03-18T08:42:03.498Z,35.62
2023-03-18T08:45:14.500Z,35.54
2023-03-18T08:48:20.864Z,35.86
2023-03-18T08:51:27.064Z,35.01
2023-03-18T08:54:33.619Z,34.36
2023-03-18T08:57:39.102Z,34.71
2023-03-18T09:00:48.216Z,34.45
2023-03-18T09:03:56.405Z,34.93
2023-03-18T09:07:04.624Z,34.51
2023-03-18T09:10:13.152Z,34.56
2023-03-18T09:13:19.626Z,33.83
2023-03-18T09:16:27.832Z,34.68
2023-03-18T09:19:34.274Z,33.45
2023-03-18T09:22:39.884Z,34.56
2023-03-18T09:25:46.728Z,32.98
2023-03-18T09:28:52.106Z,32.89
2023-03-18T09:32:01.446Z,32.50
2023-03-18T09:35:07.367Z,32.39
2023-03-18T09:38:19.858Z,32.39
2023-03-18T09:41:45.424Z,32.49
2023-03-18T09:44:59.888Z,32.35
2023-03-18T09:48:47.415Z,31.34
2023-03-18T09:52:16.918Z,31.82
2023-03-18T09:55:35.794Z,31.05
2023-03-18T09:58:59.532Z,31.00
2023-03-18T10:02:19.351Z,31.05
2023-03-18T10:05:36.060Z,30.11
2023-03-18T10:09:09.096Z,30.25
2023-03-18T10:12:27.319Z,29.98
2023-03-18T10:15:40.014Z,30.35
2023-03-18T10:18:48.015Z,29.99
2023-03-18T10:22:16.639Z,30.64
2023-03-18T10:25:37.358Z,30.99
2023-03-18T10:29:24.328Z,30.53
2023-03-18T10:32:50.433Z,29.82
2023-03-18T10:36:08.693Z,30.58
2023-03-18T10:39:23.779Z,30.37
2023-03-18T10:42:35.629Z,29.88
2023-03-18T10:45:42.626Z,29.81
2023-03-18T10:48:54.980Z,30.11
2023-03-18T10:52:12.989Z,30.41
2023-03-18T10:55:32.243Z,29.66
2023-03-18T10:58:39.020Z,28.85
2023-03-18T11:01:51.114Z,27.55
2023-03-18T11:05:04.793Z,27.86
2023-03-18T11:08:34.619Z,28.13
2023-03-18T11:11:48.724Z,27.50
2023-03-18T11:14:55.177Z,25.56
2023-03-18T11:18:06.029Z,25.47
2023-03-18T11:21:13.290Z,24.95
2023-03-18T11:24:36.526Z,25.66
2023-03-18T11:27:47.570Z,25.21
2023-03-18T11:31:00.649Z,25.74
2023-03-18T11:34:12.281Z,24.79
2023-03-18T11:37:19.067Z,25.66
2023-03-18T11:40:32.479Z,24.60
2023-03-18T11:43:42.704Z,25.80
2023-03-18T11:46:57.573Z,24.84
2023-03-18T11:50:08.597Z,25.29
2023-03-18T11:53:23.878Z,24.98
2023-03-18T11:56:42.655Z,25.66
2023-03-18T12:00:19.282Z,25.35
2023-03-18T12:04:07.213Z,24.82
2023-03-18T12:07:38.192Z,25.08
2023-03-18T12:10:54.895Z,25.40
2023-03-18T12:14:13.535Z,25.92
2023-03-18T12:17:45.656Z,25.65
2023-03-18T12:20:57.257Z,25.65
2023-03-18T12:24:28.832Z,26.36
2023-03-18T12:27:53.705Z,26.45
2023-03-18T12:31:32.078Z,26.14
2023-03-18T12:35:06.765Z,25.75
2023-03-18T12:39:07.118Z,26.20
2023-03-18T12:42:21.196Z,25.75
2023-03-18T12:45:39.684Z,25.38
2023-03-18T12:48:58.936Z,25.73
2023-03-18T12:52:17.734Z,25.88
2023-03-18T12:55:31.890Z,25.16
2023-03-18T12:58:49.241Z,24.59
2023-03-18T13:02:23.080Z,24.43
2023-03-18T13:05:46.803Z,25.06
2023-03-18T13:09:22.062Z,25.55
2023-03-18T13:12:36.478Z,25.26
2023-03-18T13:15:49.788Z,25.00
2023-03-18T13:19:02.061Z,25.63
2023-03-18T13:22:36.497Z,25.92
2023-03-18T13:26:04.362Z,25.70
2023-03-18T13:29:32.255Z,25.05
2023-03-18T13:33:15.905Z,23.92
2023-03-18T13:37:15.791Z,24.97
2023-03-18T13:40:54.494Z,24.23
2023-03-18T13:44:06.849Z,24.42
2023-03-18T13:47:22.669Z,24.34
2023-03-18T13:50:38.238Z,24.52
2023-03-18T13:53:47.623Z,24.47
2023-03-18T13:56:58.459Z,24.09
2023-03-18T14:00:36.940Z,23.58
2023-03-18T14:04:02.481Z,24.04
2023-03-18T14:07:19.425Z,24.16
2023-03-18T14:10:25.264Z,24.01
2023-03-18T14:13:37.634Z,23.46
2023-03-18T14:16:56.486Z,23.83
2023-03-18T14:20:20.590Z,24.03
2023-03-18T14:23:39.502Z,23.86
2023-03-18T14:26:50.589Z,23.57
2023-03-18T14:29:58.747Z,23.87
2023-03-18T14:33:08.268Z,23.92
2023-03-18T14:36:14.153Z,24.08
2023-03-18T14:39:29.942Z,23.58
2023-03-18T14:42:53.135Z,23.89
2023-03-18T14:46:11.965Z,23.49
2023-03-18T14:49:39.249Z,23.71
2023-03-18T14:52:55.965Z,24.05
2023-03-18T14:56:03.969Z,23.91
2023-03-18T14:59:10.886Z,24.34
2023-03-18T15:02:29.793Z,24.47
2023-03-18T15:05:41.175Z,23.77
2023-03-18T15:08:55.006Z,24.04
2023-03-18T15:12:01.911Z,24.06
2023-03-18T15:15:09.917Z,23.50
2023-03-18T15:18:28.732Z,24.38
2023-03-18T15:21:38.961Z,24.50
2023-03-18T15:24:45.281Z,24.32
2023-03-18T15:27:52.874Z,24.57
2023-03-18T15:31:01.771Z,24.35
2023-03-18T15:34:22.514Z,24.41
2023-03-18T15:37:42.969Z,24.39
2023-03-18T15:40:57.242Z,24.52
2023-03-18T15:44:03.468Z,24.37
2023-03-18T15:47:18.628Z,24.56
2023-03-18T15:50:35.256Z,24.31
2023-03-18T15:53:48.092Z,24.09
2023-03-18T15:56:55.377Z,24.39
2023-03-18T16:00:01.354Z,24.01
2023-03-18T16:03:24.951Z,24.53
2023-03-18T16:06:34.653Z,24.20
2023-03-18T16:09:40.960Z,24.55
2023-03-18T16:12:46.833Z,24.57
2023-03-18T16:15:54.205Z,24.51
2023-03-18T16:19:00.111Z,24.38
2023-03-18T16:22:09.311Z,24.87
2023-03-18T16:25:15.513Z,24.43
2023-03-18T16:28:26.076Z,25.12
2023-03-18T16:31:31.787Z,24.81
2023-03-18T16:34:38.194Z,25.28
2023-03-18T16:37:48.709Z,25.14
2023-03-18T16:41:00.163Z,25.43
2023-03-18T16:44:17.863Z,25.61
2023-03-18T16:47:29.668Z,25.90
2023-03-18T16:50:40.668Z,25.86
2023-03-18T16:53:50.235Z,26.09
2023-03-18T16:57:09.804Z,26.13
2023-03-18T17:00:40.189Z,26.26
2023-03-18T17:03:48.292Z,26.03
2023-03-18T17:06:55.192Z,25.83
2023-03-18T17:10:04.166Z,26.53
2023-03-18T17:13:19.838Z,26.94
2023-03-18T17:16:28.021Z,26.59
2023-03-18T17:19:37.349Z,26.76
2023-03-18T17:22:43.460Z,26.98
2023-03-18T17:25:59.449Z,26.45
2023-03-18T17:29:05.422Z,26.95
2023-03-18T17:32:13.510Z,27.33
2023-03-18T17:35:22.699Z,27.65
2023-03-18T17:38:29.176Z,28.20
2023-03-18T17:41:37.602Z,28.38
2023-03-18T17:44:44.053Z,27.75
2023-03-18T17:47:50.429Z,28.27
2023-03-18T17:51:01.487Z,27.54
2023-03-18T17:54:08.442Z,28.69
2023-03-18T17:57:19.265Z,28.40
2023-03-18T18:00:28.491Z,28.99
2023-03-18T18:03:37.986Z,28.08
2023-03-18T18:06:43.738Z,28.33
2023-03-18T18:09:50.338Z,29.27
2023-03-18T18:12:58.472Z,29.27
2023-03-18T18:16:05.076Z,29.42
2023-03-18T18:19:14.141Z,29.33
2023-03-18T18:22:26.688Z,29.14
2023-03-18T18:25:32.870Z,29.75
2023-03-18T18:28:45.422Z,29.21
2023-03-18T18:31:51.609Z,29.56
2023-03-18T18:34:58.164Z,29.13
2023-03-18T18:38:03.820Z,30.15
2023-03-18T18:41:10.872Z,29.55
2023-03-18T18:44:19.811Z,29.88
2023-03-18T18:47:26.054Z,30.37
2023-03-18T18:50:35.629Z,30.04
2023-03-18T18:53:43.586Z,30.83
2023-03-18T18:56:49.835Z,30.63
2023-03-18T18:59:59.930Z,30.96
2023-03-18T19:03:06.017Z,30.14
2023-03-18T19:06:29.325Z,30.49
2023-03-18T19:09:35.175Z,30.32
2023-03-18T19:12:42.147Z,30.09
2023-03-18T19:15:51.698Z,30.69
2023-03-18T19:18:59.094Z,30.27
2023-03-18T19:22:05.549Z,31.23
2023-03-18T19:25:16.077Z,31.40
2023-03-18T19:28:47.656Z,30.75
2023-03-18T19:31:57.522Z,31.14
2023-03-18T19:35:03.336Z,31.12
2023-03-18T19:38:10.097Z,31.12
2023-03-18T19:41:15.816Z,31.27
2023-03-18T19:44:25.778Z,31.70
2023-03-18T19:47:34.886Z,32.02
2023-03-18T19:50:41.307Z,31.11
2023-03-18T19:53:48.552Z,31.04
2023-03-18T19:56:55.994Z,31.10
2023-03-18T20:00:07.407Z,31.68
2023-03-18T20:03:26.347Z,31.98
2023-03-18T20:06:32.958Z,31.46
2023-03-18T20:09:39.686Z,32.15
2023-03-18T20:12:49.140Z,31.48
2023-03-18T20:15:55.781Z,31.48
2023-03-18T20:19:04.599Z,31.89
2023-03-18T20:22:24.070Z,31.86
2023-03-18T20:25:37.510Z,31.51
2023-03-18T20:28:45.880Z,31.77
2023-03-18T20:31:51.919Z,31.51
2023-03-18T20:35:03.517Z,31.35
2023-03-18T20:38:21.233Z,31.71
2023-03-18T20:41:28.249Z,32.27
2023-03-18T20:44:33.859Z,31.96
2023-03-18T20:47:40.141Z,32.36
2023-03-18T20:50:49.380Z,31.68
2023-03-18T20:53:55.622Z,31.36
2023-03-18T20:57:01.401Z,31.68
2023-03-18T21:00:09.623Z,31.81
2023-03-18T21:03:26.455Z,31.68
2023-03-18T21:06:36.066Z,32.04
2023-03-18T21:09:41.664Z,31.81
2023-03-18T21:12:49.400Z,31.87
2023-03-18T21:15:54.941Z,31.79
2023-03-18T21:19:03.131Z,32.34
2023-03-18T21:22:16.370Z,32.57
2023-03-18T21:25:26.287Z,32.84
2023-03-18T21:28:33.485Z,32.22
2023-03-18T21:31:39.825Z,32.82
2023-03-18T21:34:45.341Z,32.67
2023-03-18T21:37:55.810Z,32.33
2023-03-18T21:41:04.762Z,32.21
2023-03-18T21:44:14.227Z,33.30
2023-03-18T21:47:22.243Z,33.31
2023-03-18T21:50:29.928Z,32.73
2023-03-18T21:53:38.129Z,33.06
2023-03-18T21:56:44.407Z,33.36
2023-03-18T21:59:49.816Z,32.86
2023-03-18T22:02:56.162Z,33.07
2023-03-18T22:06:01.873Z,32.82
2023-03-18T22:09:11.194Z,32.83
2023-03-18T22:12:20.932Z,32.41
2023-03-18T22:15:39.738Z,32.50
2023-03-18T22:18:47.609Z,32.28
2023-03-18T22:21:53.972Z,32.23
2023-03-18T22:25:02.111Z,31.99
2023-03-18T22:28:09.133Z,32.24
2023-03-18T22:31:23.778Z,32.75
2023-03-18T22:34:30.713Z,32.48
2023-03-18T22:37:36.572Z,32.62
2023-03-18T22:40:48.430Z,32.99
2023-03-18T22:43:54.872Z,32.44
2023-03-18T22:47:02.760Z,32.64
2023-03-18T22:50:09.226Z,32.66
2023-03-18T22:53:25.032Z,32.40
2023-03-18T22:56:33.221Z,32.40
2023-03-18T22:59:39.428Z,31.95
2023-03-18T23:02:45.161Z,32.23
2023-03-18T23:05:54.909Z,32.10
2023-03-18T23:09:00.356Z,31.83
2023-03-18T23:12:11.906Z,31.75
2023-03-18T23:15:20.979Z,31.72
2023-03-18T23:18:28.400Z,31.78
2023-03-18T23:21:35.141Z,31.96
2023-03-18T23:24:41.681Z,31.74
2023-03-18T23:27:50.124Z,32.07
2023-03-18T23:30:57.250Z,32.42
2023-03-18T23:34:02.654Z,32.49
2023-03-18T23:37:09.829Z,32.90
2023-03-18T23:40:17.792Z,33.30
2023-03-18T23:43:26.857Z,33.72
2023-03-18T23:46:33.021Z,34.14
2023-03-18T23:49:40.620Z,34.80
2023-03-18T23:52:46.611Z,34.69
2023-03-18T23:55:52.949Z,35.00
2023-03-18T23:59:01.210Z,34.98
